createdAt,value
2022-10-27T03:37:27.590Z,0
2022-10-27T03:42:29.329Z,0
2022-10-27T03:47:31.057Z,0
2022-10-27T03:52:34.468Z,0
2022-10-27T03:57:36.218Z,0
2022-10-27T04:02:38.004Z,0
2022-10-27T04:07:47.968Z,0
2022-10-27T04:12:51.432Z,0
2022-10-27T04:17:53.619Z,0
2022-10-27T04:22:56.253Z,0
2022-10-27T04:28:00.714Z,0
2022-10-27T04:33:02.937Z,0
2022-10-27T04:38:04.743Z,0
2022-10-27T04:43:06.483Z,0
2022-10-27T04:48:08.235Z,0
2022-10-27T04:53:09.942Z,0
2022-10-27T04:58:11.756Z,0
2022-10-27T05:03:14.027Z,0
2022-10-27T05:08:15.801Z,0
2022-10-27T05:13:17.583Z,0
2022-10-27T05:18:19.392Z,1.42
2022-10-27T05:23:21.411Z,1.42
2022-10-27T05:28:23.698Z,0
2022-10-27T05:33:25.472Z,0
2022-10-27T05:38:27.309Z,0
2022-10-27T05:48:34.978Z,0
2022-10-27T05:53:36.786Z,0
2022-10-27T05:58:38.499Z,0
2022-10-27T06:03:40.286Z,0
2022-10-27T06:08:42.020Z,0
2022-10-27T06:13:43.769Z,0
2022-10-27T06:18:45.524Z,0
2022-10-27T06:23:47.807Z,0
2022-10-27T06:28:49.410Z,0
2022-10-27T06:33:51.129Z,0
2022-10-27T06:38:52.910Z,0
2022-10-27T06:43:54.623Z,0
2022-10-27T06:48:56.766Z,0
2022-10-27T06:53:58.560Z,0
2022-10-27T06:59:00.322Z,0
2022-10-27T07:04:02.003Z,0
2022-10-27T07:09:10.673Z,0
2022-10-27T07:14:12.369Z,0
2022-10-27T07:19:14.431Z,0
2022-10-27T07:24:16.171Z,0
2022-10-27T07:29:17.885Z,0
2022-10-27T07:34:19.653Z,0
2022-10-27T07:39:22.303Z,0
2022-10-27T07:44:24.109Z,0
2022-10-27T07:49:25.867Z,0
2022-10-27T07:54:27.716Z,0
2022-10-27T07:59:29.486Z,0
2022-10-27T08:04:31.219Z,0
2022-10-27T08:09:32.990Z,0
2022-10-27T08:14:34.718Z,0
2022-10-27T08:19:36.545Z,0
2022-10-27T08:24:38.182Z,0
2022-10-27T08:29:40.201Z,0
2022-10-27T08:34:42.093Z,0
2022-10-27T08:39:43.932Z,0
2022-10-27T08:44:50.074Z,0
2022-10-27T08:49:55.394Z,0
2022-10-27T08:55:00.254Z,0
2022-10-27T09:00:02.477Z,0
2022-10-27T09:10:18.715Z,0
2022-10-27T09:15:26.776Z,0
2022-10-27T09:20:31.676Z,0
2022-10-27T09:25:34.885Z,0
2022-10-27T09:30:38.207Z,0
2022-10-27T09:35:39.963Z,0
2022-10-27T09:40:41.894Z,0
2022-10-27T09:45:43.763Z,0.54
2022-10-27T09:50:48.402Z,0.54
2022-10-27T09:55:52.028Z,0.89
2022-10-27T10:00:56.331Z,0.89
2022-10-27T10:05:58.922Z,1.81
2022-10-27T10:11:01.912Z,1.81
2022-10-27T10:16:06.414Z,2.34
2022-10-27T10:21:09.278Z,2.34
2022-10-27T10:26:15.980Z,1.6
2022-10-27T10:31:22.188Z,1.6
2022-10-27T10:36:26.438Z,1.5
2022-10-27T10:41:28.624Z,1.2
2022-10-27T10:46:30.345Z,1.2
2022-10-27T10:51:33.458Z,1.8
2022-10-27T10:56:36.638Z,1.8
2022-10-27T11:01:44.110Z,1.54
2022-10-27T11:06:57.647Z,1.54
2022-10-27T11:12:00.432Z,1.26
2022-10-27T11:17:03.168Z,1.26
2022-10-27T11:22:07.631Z,1.44
2022-10-27T11:27:13.337Z,1.44
2022-10-27T11:32:17.133Z,1.6
2022-10-27T11:37:21.281Z,1.6
2022-10-27T11:42:26.846Z,0
2022-10-27T11:47:32.754Z,0
2022-10-27T11:52:37.530Z,2.34
2022-10-27T11:57:42.709Z,0.69
2022-10-27T12:07:58.580Z,1.05
2022-10-27T12:13:02.161Z,1.05
2022-10-27T12:18:11.027Z,2.15
2022-10-27T12:23:16.428Z,2.15
2022-10-27T12:28:19.090Z,0
2022-10-27T12:33:24.451Z,0
2022-10-27T12:38:30.283Z,1.38
2022-10-27T12:43:39.475Z,1.38
2022-10-27T12:53:49.565Z,3.39
2022-10-27T12:58:55.235Z,1.67
2022-10-27T13:14:18.604Z,2.86
2022-10-27T13:19:24.975Z,2.86
2022-10-27T13:24:30.765Z,0
2022-10-27T13:29:37.567Z,0
2022-10-27T13:34:39.301Z,1.19
2022-10-27T13:39:44.835Z,1.19
2022-10-27T13:44:46.476Z,1.15
2022-10-27T13:49:52.219Z,1.15
2022-10-27T13:54:56.742Z,0
2022-10-27T14:00:01.525Z,0
2022-10-27T14:05:05.773Z,0
2022-10-27T14:10:13.023Z,0
2022-10-27T14:15:18.368Z,0
2022-10-27T14:20:22.589Z,0
2022-10-27T14:25:26.573Z,0
2022-10-27T14:30:28.460Z,0
2022-10-27T14:35:30.551Z,0
2022-10-27T14:40:36.047Z,1.33
2022-10-27T14:45:40.806Z,1.33
2022-10-27T14:50:42.688Z,1.36
2022-10-27T14:55:44.788Z,1.36
2022-10-27T15:00:50.697Z,0
2022-10-27T15:05:52.444Z,0
2022-10-27T15:10:57.756Z,0
2022-10-27T15:15:59.970Z,0
2022-10-27T15:21:02.841Z,0.71
2022-10-27T15:26:05.264Z,0
2022-10-27T15:31:07.190Z,0
2022-10-27T15:36:11.837Z,0
2022-10-27T15:41:22.204Z,0
2022-10-27T15:46:28.149Z,0
2022-10-27T15:56:38.134Z,0
2022-10-27T16:01:41.005Z,0
2022-10-27T16:06:43.129Z,0
2022-10-27T16:11:44.917Z,0
2022-10-27T16:16:46.756Z,1.04
2022-10-27T16:21:48.524Z,1.04
2022-10-27T16:26:50.608Z,0
2022-10-27T16:31:52.793Z,0
2022-10-27T16:36:55.357Z,0
2022-10-27T16:41:57.734Z,0
2022-10-27T16:46:59.904Z,0
2022-10-27T16:52:02.114Z,0
2022-10-27T16:57:05.170Z,0
2022-10-27T17:02:07.910Z,0
2022-10-27T17:07:11.654Z,0
2022-10-27T17:12:14.885Z,0
2022-10-27T17:17:18.820Z,0
2022-10-27T17:22:21.776Z,0
2022-10-27T17:27:24.623Z,0
2022-10-27T17:32:27.196Z,0
2022-10-27T17:37:29.608Z,0
2022-10-27T17:42:32.857Z,0
2022-10-27T17:47:35.606Z,0
2022-10-27T17:52:38.384Z,0
2022-10-27T17:57:40.726Z,0
2022-10-27T18:02:43.361Z,0
2022-10-27T18:07:48.601Z,0
2022-10-27T18:12:53.515Z,0
2022-10-27T18:17:56.775Z,0
2022-10-27T18:22:59.744Z,0
2022-10-27T18:28:02.737Z,0
2022-10-27T18:33:05.371Z,0
2022-10-27T18:38:08.824Z,0
2022-10-27T18:43:12.843Z,0
2022-10-27T18:48:15.852Z,0
2022-10-27T18:53:18.417Z,0
2022-10-27T18:58:22.741Z,0
2022-10-27T19:03:25.371Z,0
2022-10-27T19:08:31.517Z,0
2022-10-27T19:13:35.255Z,0
2022-10-27T19:18:38.135Z,0
2022-10-27T19:23:41.128Z,0
2022-10-27T19:28:45.254Z,0
2022-10-27T19:33:48.680Z,0
2022-10-27T19:38:53.612Z,0
2022-10-27T19:43:56.939Z,0
2022-10-27T19:49:00.825Z,0
2022-10-27T19:54:05.181Z,0
2022-10-27T19:59:08.103Z,0
2022-10-27T20:04:13.214Z,0
2022-10-27T20:09:17.769Z,0
2022-10-27T20:14:23.441Z,0
2022-10-27T20:19:32.322Z,0
2022-10-27T20:24:37.284Z,0
2022-10-27T20:29:40.109Z,0
2022-10-27T20:34:42.471Z,0
2022-10-27T20:39:44.939Z,0.71
2022-10-27T20:44:47.349Z,0.71
2022-10-27T20:49:49.841Z,0.71
2022-10-27T20:54:51.584Z,0.71
2022-10-27T20:59:53.252Z,0.71
2022-10-27T21:04:55.184Z,0.71
2022-10-27T21:09:57.669Z,0.71
2022-10-27T21:14:59.343Z,0.71
2022-10-27T21:20:01.192Z,0.71
2022-10-27T21:25:03.687Z,0.71
2022-10-27T21:30:06.092Z,0.71
2022-10-27T21:35:08.409Z,0.71
